createdAt,value
2019-03-22T00:00:29.962Z,96.60
2019-03-22T00:02:59.697Z,96.80
2019-03-22T00:05:29.486Z,96.80
2019-03-22T00:07:59.318Z,96.90
2019-03-22T00:10:28.997Z,96.90
2019-03-22T00:12:59.246Z,96.90
2019-03-22T00:15:29.003Z,96.80
2019-03-22T00:17:58.841Z,96.70
2019-03-22T00:20:28.661Z,96.70
2019-03-22T00:22:58.374Z,96.70
2019-03-22T00:25:28.078Z,96.70
2019-03-22T00:27:57.786Z,96.70
2019-03-22T00:30:27.549Z,96.80
2019-03-22T00:32:57.304Z,96.90
2019-03-22T00:35:27.025Z,96.90
2019-03-22T00:37:56.709Z,97.00
2019-03-22T00:40:26.453Z,96.90
2019-03-22T00:42:56.129Z,96.90
2019-03-22T00:45:25.825Z,96.80
2019-03-22T00:47:55.553Z,96.70
2019-03-22T00:50:27.957Z,96.50
2019-03-22T00:52:57.638Z,96.50
2019-03-22T00:55:27.314Z,96.50
2019-03-22T00:57:57.009Z,96.40
2019-03-22T01:00:26.701Z,96.40
2019-03-22T01:02:56.490Z,96.30
2019-03-22T01:05:26.255Z,96.20
2019-03-22T01:07:56.065Z,96.20
2019-03-22T01:10:25.789Z,96.30
2019-03-22T01:12:55.561Z,96.40
2019-03-22T01:15:25.279Z,96.50
2019-03-22T01:17:54.968Z,96.60
2019-03-22T01:20:24.737Z,96.50
2019-03-22T01:22:54.484Z,96.50
2019-03-22T01:25:24.179Z,96.40
2019-03-22T01:27:53.865Z,96.20
2019-03-22T01:30:23.663Z,96.00
2019-03-22T01:32:53.418Z,95.90
2019-03-22T01:35:26.021Z,95.80
2019-03-22T01:37:55.747Z,95.80
2019-03-22T01:40:25.457Z,95.70
2019-03-22T01:42:55.213Z,95.60
2019-03-22T01:45:24.894Z,95.90
2019-03-22T01:47:54.605Z,95.50
2019-03-22T01:50:24.373Z,95.50
2019-03-22T01:52:54.058Z,95.30
2019-03-22T01:55:23.801Z,95.40
2019-03-22T01:57:54.151Z,95.40
2019-03-22T02:00:23.995Z,95.40
2019-03-22T02:02:53.754Z,95.40
2019-03-22T02:05:23.581Z,95.40
2019-03-22T02:07:53.262Z,95.50
2019-03-22T02:10:22.941Z,95.40
2019-03-22T02:12:52.653Z,95.50
2019-03-22T02:15:22.326Z,95.50
2019-03-22T02:17:52.062Z,95.50
2019-03-22T02:20:21.785Z,95.40
2019-03-22T02:22:51.469Z,95.40
2019-03-22T02:25:21.153Z,95.50
2019-03-22T02:27:50.821Z,95.50
2019-03-22T02:30:20.538Z,95.50
2019-03-22T02:32:50.298Z,95.60
2019-03-22T02:35:28.884Z,95.60
2019-03-22T02:37:51.655Z,95.60
2019-03-22T02:40:21.327Z,95.60
2019-03-22T02:42:51.038Z,95.60
2019-03-22T02:45:20.721Z,95.70
2019-03-22T02:47:50.509Z,95.70
2019-03-22T02:50:20.587Z,95.90
2019-03-22T02:52:50.457Z,95.90
2019-03-22T02:55:20.138Z,96.00
2019-03-22T02:57:49.827Z,96.00
2019-03-22T03:00:19.667Z,96.00
2019-03-22T03:02:49.425Z,96.00
2019-03-22T03:05:19.210Z,96.10
2019-03-22T03:07:48.929Z,96.10
2019-03-22T03:10:18.641Z,96.10
2019-03-22T03:12:48.358Z,96.10
2019-03-22T03:15:18.815Z,96.20
2019-03-22T03:17:48.781Z,96.20
2019-03-22T03:20:18.880Z,96.30
2019-03-22T03:22:48.676Z,96.60
2019-03-22T03:25:19.449Z,96.30
2019-03-22T03:27:49.274Z,96.20
2019-03-22T03:30:19.240Z,96.20
2019-03-22T03:32:49.209Z,96.30
2019-03-22T03:35:19.240Z,96.20
2019-03-22T03:37:49.195Z,96.10
2019-03-22T03:40:21.012Z,96.30
2019-03-22T03:42:50.775Z,96.30
2019-03-22T03:45:34.827Z,96.30
2019-03-22T03:48:06.073Z,96.30
2019-03-22T03:50:36.100Z,96.40
2019-03-22T03:53:06.216Z,96.40
2019-03-22T03:55:36.052Z,96.40
2019-03-22T03:58:05.860Z,96.40
2019-03-22T04:00:36.034Z,96.40
2019-03-22T04:03:05.754Z,96.40
2019-03-22T04:05:35.505Z,96.40
2019-03-22T04:08:05.763Z,96.40
2019-03-22T04:10:35.488Z,96.40
2019-03-22T04:13:05.307Z,96.30
2019-03-22T04:15:34.997Z,96.30
2019-03-22T04:18:04.814Z,96.30
2019-03-22T04:20:34.529Z,96.20
2019-03-22T04:23:04.307Z,96.20
2019-03-22T04:25:34.077Z,96.20
2019-03-22T04:28:03.894Z,96.30
2019-03-22T04:30:33.646Z,96.30
2019-03-22T04:33:06.367Z,96.30
2019-03-22T04:35:34.760Z,96.30
2019-03-22T04:38:04.427Z,96.30
2019-03-22T04:40:34.182Z,96.30
2019-03-22T04:43:03.855Z,96.30
2019-03-22T04:45:35.885Z,96.30
2019-03-22T04:48:16.488Z,96.40
2019-03-22T04:50:48.701Z,96.40
2019-03-22T04:53:22.099Z,96.40
2019-03-22T04:55:56.687Z,96.30
2019-03-22T04:58:28.097Z,96.30
2019-03-22T05:00:59.588Z,96.20
2019-03-22T05:03:30.122Z,96.30
2019-03-22T05:06:02.524Z,96.20
2019-03-22T05:08:35.538Z,96.20
2019-03-22T05:11:06.550Z,96.10
2019-03-22T05:13:37.134Z,96.10
2019-03-22T05:16:09.184Z,96.00
2019-03-22T05:18:39.705Z,96.10
2019-03-22T05:21:10.874Z,96.10
2019-03-22T05:23:41.329Z,96.10
2019-03-22T05:26:12.508Z,96.20
2019-03-22T05:28:43.135Z,96.30
2019-03-22T05:31:53.172Z,96.30
2019-03-22T05:34:22.903Z,96.30
2019-03-22T05:36:52.589Z,96.40
2019-03-22T05:39:22.282Z,96.50
2019-03-22T05:41:52.018Z,96.60
2019-03-22T05:44:21.777Z,96.50
2019-03-22T05:46:51.558Z,96.40
2019-03-22T05:49:21.274Z,96.30
2019-03-22T05:51:50.942Z,96.10
2019-03-22T05:54:20.657Z,96.00
2019-03-22T05:56:50.453Z,96.00
2019-03-22T05:59:20.225Z,96.00
2019-03-22T06:01:49.962Z,96.00
2019-03-22T06:04:19.645Z,95.90
2019-03-22T06:06:49.424Z,96.00
2019-03-22T06:09:19.218Z,96.10
2019-03-22T06:11:48.913Z,96.10
2019-03-22T06:14:18.618Z,96.10
2019-03-22T06:16:48.330Z,96.00
2019-03-22T06:19:18.154Z,95.90
2019-03-22T06:21:47.885Z,95.90
2019-03-22T06:24:17.694Z,95.80
2019-03-22T06:26:47.558Z,95.80
2019-03-22T06:29:18.270Z,95.60
2019-03-22T06:31:48.023Z,95.50
2019-03-22T06:34:17.700Z,95.50
2019-03-22T06:36:47.417Z,95.30
2019-03-22T06:39:17.189Z,95.20
2019-03-22T06:41:46.945Z,95.20
2019-03-22T06:44:16.661Z,95.30
2019-03-22T06:46:46.361Z,95.20
2019-03-22T06:49:16.122Z,95.10
2019-03-22T06:51:45.846Z,95.10
2019-03-22T06:54:15.646Z,95.10
2019-03-22T06:56:45.361Z,95.00
2019-03-22T06:59:15.045Z,94.90
2019-03-22T07:01:46.251Z,94.90
2019-03-22T07:04:16.074Z,95.00
2019-03-22T07:06:45.970Z,95.00
2019-03-22T07:09:15.738Z,94.90
2019-03-22T07:11:45.490Z,94.90
2019-03-22T07:14:15.167Z,95.20
2019-03-22T07:16:44.872Z,95.30
2019-03-22T07:19:14.565Z,95.30
2019-03-22T07:21:44.302Z,95.50
2019-03-22T07:24:14.001Z,95.60
2019-03-22T07:26:43.697Z,95.60
2019-03-22T07:29:13.393Z,95.80
2019-03-22T07:31:43.078Z,95.90
2019-03-22T07:34:12.872Z,96.10
2019-03-22T07:36:42.689Z,96.30
2019-03-22T07:39:12.419Z,96.60
2019-03-22T07:41:42.121Z,96.80
2019-03-22T07:44:11.798Z,96.90
2019-03-22T07:46:41.573Z,97.00
2019-03-22T07:49:11.374Z,97.10
2019-03-22T07:51:41.426Z,97.20
2019-03-22T07:54:11.779Z,97.30
2019-03-22T07:56:41.484Z,97.60
2019-03-22T07:59:11.167Z,97.90
2019-03-22T08:01:41.116Z,97.80
2019-03-22T08:04:11.025Z,97.90
2019-03-22T08:06:40.976Z,98.00
2019-03-22T08:09:11.043Z,97.90
2019-03-22T08:11:41.730Z,98.00
2019-03-22T08:14:11.605Z,98.10
2019-03-22T08:16:41.565Z,98.10
2019-03-22T08:19:11.304Z,98.20
2019-03-22T08:21:41.222Z,98.40
2019-03-22T08:24:10.904Z,98.80
2019-03-22T08:26:40.757Z,98.60
2019-03-22T08:29:10.686Z,98.80
2019-03-22T08:31:40.428Z,99.10
2019-03-22T08:34:10.235Z,99.30
2019-03-22T08:36:40.139Z,99.30
2019-03-22T08:39:10.250Z,99.20
2019-03-22T08:41:40.089Z,99.30
2019-03-22T08:44:10.065Z,99.30
2019-03-22T08:46:39.851Z,99.10
2019-03-22T08:49:09.845Z,99.00
2019-03-22T08:51:39.734Z,98.90
2019-03-22T08:54:09.445Z,98.70
2019-03-22T08:56:39.333Z,98.60
2019-03-22T08:59:09.127Z,98.60
2019-03-22T09:01:38.988Z,98.30
2019-03-22T09:04:08.690Z,98.20
2019-03-22T09:06:38.628Z,98.10
2019-03-22T09:09:08.960Z,98.10
2019-03-22T09:11:38.992Z,98.10
2019-03-22T09:14:08.714Z,98.10
2019-03-22T09:16:38.514Z,98.00
2019-03-22T09:19:08.218Z,97.90
2019-03-22T09:21:37.998Z,97.80
2019-03-22T09:24:07.716Z,97.60
2019-03-22T09:26:47.177Z,97.30
2019-03-22T09:29:08.966Z,97.20
2019-03-22T09:31:38.662Z,97.10
2019-03-22T09:34:08.381Z,97.00
2019-03-22T09:36:38.416Z,96.80
2019-03-22T09:39:09.473Z,96.40
2019-03-22T09:41:39.231Z,96.10
2019-03-22T09:44:08.948Z,95.70
2019-03-22T09:46:38.831Z,95.10
2019-03-22T09:49:08.539Z,94.40
2019-03-22T09:51:38.402Z,94.10
2019-03-22T09:54:08.201Z,94.00
2019-03-22T09:56:46.925Z,93.80
2019-03-22T09:59:09.371Z,93.80
2019-03-22T10:01:39.212Z,94.00
2019-03-22T10:04:09.237Z,94.40
2019-03-22T10:06:39.071Z,94.70
2019-03-22T10:09:08.793Z,94.80
2019-03-22T10:11:38.521Z,95.10
2019-03-22T10:14:08.334Z,95.40
2019-03-22T10:16:37.998Z,95.60
2019-03-22T10:19:07.701Z,95.70
2019-03-22T10:21:37.480Z,95.70
2019-03-22T10:24:07.264Z,95.80
2019-03-22T10:26:37.084Z,95.80
2019-03-22T10:29:07.283Z,96.10
2019-03-22T10:31:37.875Z,95.60
2019-03-22T10:34:07.896Z,95.60
2019-03-22T10:36:37.729Z,95.50
2019-03-22T10:39:09.905Z,95.50
2019-03-22T10:41:39.771Z,95.20
2019-03-22T10:44:09.478Z,95.10
2019-03-22T10:46:39.287Z,95.10
2019-03-22T10:49:09.117Z,95.20
2019-03-22T10:51:38.880Z,95.40
2019-03-22T10:54:08.601Z,95.50
2019-03-22T10:56:38.379Z,95.70
2019-03-22T10:59:08.143Z,95.80
2019-03-22T11:01:48.495Z,95.90
2019-03-22T11:06:39.329Z,96.00
2019-03-22T11:09:09.898Z,95.90
2019-03-22T11:11:39.578Z,95.80
2019-03-22T11:14:09.357Z,95.70
2019-03-22T11:16:39.119Z,95.40
2019-03-22T11:19:08.957Z,95.50
2019-03-22T11:21:38.629Z,95.50
2019-03-22T11:24:08.385Z,95.60
2019-03-22T11:26:38.129Z,95.50
2019-03-22T11:29:08.176Z,95.60
2019-03-22T11:31:40.052Z,95.90
2019-03-22T11:34:09.543Z,96.00
2019-03-22T11:36:39.337Z,96.10
2019-03-22T11:39:15.928Z,96.20
2019-03-22T11:41:44.330Z,96.20
2019-03-22T11:44:14.146Z,96.30
2019-03-22T11:46:44.143Z,96.40
2019-03-22T11:49:14.138Z,96.50
2019-03-22T11:51:43.892Z,96.50
2019-03-22T11:54:13.597Z,96.60
2019-03-22T11:56:43.266Z,96.60
2019-03-22T11:59:13.027Z,96.60
2019-03-22T12:01:42.735Z,96.70
2019-03-22T12:04:12.407Z,96.70
2019-03-22T12:06:42.131Z,96.60
2019-03-22T12:09:11.902Z,96.50
2019-03-22T12:11:42.234Z,96.50
2019-03-22T12:14:12.041Z,96.50
2019-03-22T12:16:41.828Z,96.50
2019-03-22T12:19:11.531Z,96.40
2019-03-22T12:21:41.394Z,96.40
2019-03-22T12:24:11.166Z,96.30
2019-03-22T12:26:40.857Z,96.30
2019-03-22T12:29:11.020Z,96.30
2019-03-22T12:31:40.753Z,96.30
2019-03-22T12:34:10.538Z,96.30
2019-03-22T12:36:40.333Z,96.40
2019-03-22T12:39:10.475Z,96.40
2019-03-22T12:41:40.206Z,96.50
2019-03-22T12:44:09.954Z,96.50
2019-03-22T12:46:39.707Z,96.50
2019-03-22T12:49:09.421Z,96.40
2019-03-22T12:51:39.129Z,96.30
2019-03-22T12:54:08.801Z,96.30
2019-03-22T12:56:38.577Z,96.30
2019-03-22T12:59:08.258Z,96.30
2019-03-22T13:01:37.929Z,96.20
2019-03-22T13:04:07.665Z,96.20
2019-03-22T13:06:37.457Z,96.20
2019-03-22T13:09:09.506Z,96.30
2019-03-22T13:11:39.229Z,96.30
2019-03-22T13:14:08.988Z,96.40
2019-03-22T13:16:38.833Z,96.50
2019-03-22T13:19:08.585Z,96.60
2019-03-22T13:21:38.395Z,96.80
2019-03-22T13:24:08.221Z,96.80
2019-03-22T13:26:37.910Z,96.80
2019-03-22T13:29:08.047Z,96.90
2019-03-22T13:31:37.822Z,97.10
2019-03-22T13:34:07.615Z,97.20
2019-03-22T13:36:37.446Z,97.20
2019-03-22T13:39:08.729Z,97.20
2019-03-22T13:41:38.465Z,97.30
2019-03-22T13:44:08.230Z,97.40
2019-03-22T13:46:40.428Z,97.50
2019-03-22T13:49:09.621Z,97.70
2019-03-22T13:51:39.313Z,97.70
2019-03-22T13:54:09.114Z,97.70
2019-03-22T13:56:38.942Z,97.70
2019-03-22T13:59:08.630Z,97.70
2019-03-22T14:01:38.337Z,97.70
2019-03-22T14:04:08.127Z,98.00
2019-03-22T14:06:37.945Z,97.70
2019-03-22T14:09:08.969Z,97.80
2019-03-22T14:11:38.651Z,97.70
2019-03-22T14:14:08.336Z,97.80
2019-03-22T14:16:38.268Z,97.80
2019-03-22T14:19:07.973Z,97.80
2019-03-22T14:21:37.865Z,97.80
2019-03-22T14:24:07.640Z,97.80
2019-03-22T14:26:37.393Z,97.80
2019-03-22T14:29:07.109Z,97.70
2019-03-22T14:31:36.790Z,97.70
2019-03-22T14:34:06.470Z,97.70
2019-03-22T14:36:36.227Z,97.60
2019-03-22T14:39:07.826Z,97.60
2019-03-22T14:41:37.710Z,97.60
2019-03-22T14:44:07.513Z,97.50
2019-03-22T14:46:37.223Z,97.50
2019-03-22T14:49:07.037Z,97.60
2019-03-22T14:51:36.729Z,97.60
2019-03-22T14:54:06.697Z,97.60
2019-03-22T14:56:36.456Z,97.40
2019-03-22T14:59:06.573Z,97.40
2019-03-22T15:01:36.267Z,97.30
2019-03-22T15:04:06.106Z,97.20
2019-03-22T15:06:35.814Z,97.20
2019-03-22T15:09:07.481Z,97.20
2019-03-22T15:11:37.181Z,97.40
2019-03-22T15:14:14.126Z,97.50
2019-03-22T15:17:07.922Z,97.70
2019-03-22T15:19:54.906Z,97.80
2019-03-22T15:22:55.495Z,97.70
2019-03-22T15:25:43.233Z,97.70
2019-03-22T15:28:30.498Z,97.70
2019-03-22T15:31:22.354Z,97.60
2019-03-22T15:34:17.155Z,97.60
2019-03-22T15:36:57.677Z,97.60
2019-03-22T15:39:44.282Z,97.70
2019-03-22T15:42:14.336Z,97.70
2019-03-22T15:44:44.195Z,97.70
2019-03-22T15:47:14.020Z,97.80
2019-03-22T15:49:43.792Z,97.90
2019-03-22T15:52:13.496Z,97.90
2019-03-22T15:54:43.294Z,98.00
2019-03-22T15:57:13.039Z,98.10
2019-03-22T15:59:42.742Z,98.20
2019-03-22T16:02:12.567Z,98.30
2019-03-22T16:04:42.388Z,98.40
2019-03-22T16:07:12.194Z,98.40
2019-03-22T16:09:41.996Z,98.50
2019-03-22T16:12:11.761Z,98.70
2019-03-22T16:14:41.432Z,98.60
2019-03-22T16:17:11.214Z,98.70
2019-03-22T16:19:40.931Z,98.60
2019-03-22T16:22:10.601Z,98.90
2019-03-22T16:24:40.405Z,98.60
2019-03-22T16:27:10.214Z,98.70
2019-03-22T16:29:39.885Z,98.70
2019-03-22T16:32:09.634Z,98.60
2019-03-22T16:34:39.343Z,98.70
2019-03-22T16:37:09.017Z,98.70
2019-03-22T16:39:38.738Z,98.60
2019-03-22T16:42:09.130Z,98.70
2019-03-22T16:44:38.825Z,98.70
2019-03-22T16:47:08.678Z,98.80
2019-03-22T16:49:38.773Z,98.90
2019-03-22T16:52:09.054Z,99.10
2019-03-22T16:54:38.962Z,99.20
2019-03-22T16:57:08.987Z,99.20
2019-03-22T16:59:38.838Z,99.20
2019-03-22T17:02:08.702Z,99.20
2019-03-22T17:04:38.381Z,99.10
2019-03-22T17:07:08.113Z,99.20
2019-03-22T17:09:37.881Z,99.20
2019-03-22T17:12:07.588Z,99.30
2019-03-22T17:14:37.278Z,99.30
2019-03-22T17:17:06.982Z,99.20
2019-03-22T17:19:36.726Z,99.20
2019-03-22T17:22:06.674Z,99.20
2019-03-22T17:24:37.290Z,99.20
2019-03-22T17:27:06.958Z,99.20
2019-03-22T17:29:36.712Z,99.30
2019-03-22T17:32:06.447Z,99.40
2019-03-22T17:34:36.141Z,99.50
2019-03-22T17:37:46.434Z,99.60
2019-03-22T17:40:52.633Z,99.60
2019-03-22T17:43:22.618Z,99.70
2019-03-22T17:45:52.329Z,99.80
2019-03-22T17:48:22.093Z,99.70
2019-03-22T17:50:51.793Z,99.60
2019-03-22T17:53:21.698Z,99.60
2019-03-22T17:55:51.453Z,99.60
2019-03-22T17:58:21.206Z,99.70
2019-03-22T18:00:51.609Z,99.70
2019-03-22T18:03:21.328Z,99.60
2019-03-22T18:05:51.125Z,99.90
2019-03-22T18:08:20.815Z,99.80
2019-03-22T18:10:50.672Z,99.80
2019-03-22T18:13:20.362Z,99.70
2019-03-22T18:15:50.153Z,99.70
2019-03-22T18:18:20.038Z,99.60
2019-03-22T18:20:49.766Z,99.60
2019-03-22T18:23:19.558Z,99.60
2019-03-22T18:25:49.352Z,99.60
2019-03-22T18:28:19.110Z,99.50
2019-03-22T18:30:48.902Z,99.60
2019-03-22T18:33:18.581Z,99.60
2019-03-22T18:35:48.265Z,99.60
2019-03-22T18:38:17.972Z,99.60
2019-03-22T18:40:47.656Z,99.60
2019-03-22T18:43:17.469Z,99.70
2019-03-22T18:45:47.173Z,99.70
2019-03-22T18:48:16.925Z,99.90
2019-03-22T18:50:56.059Z,99.80
2019-03-22T18:53:18.052Z,99.70
2019-03-22T18:55:47.842Z,99.80
2019-03-22T18:58:17.543Z,99.70
2019-03-22T19:00:49.513Z,99.90
2019-03-22T19:03:18.676Z,99.80
2019-03-22T19:05:48.387Z,99.90
2019-03-22T19:08:18.116Z,99.90
2019-03-22T19:10:47.814Z,99.80
2019-03-22T19:13:17.501Z,99.80
2019-03-22T19:15:47.201Z,99.80
2019-03-22T19:18:17.034Z,99.80
2019-03-22T19:20:46.860Z,99.80
2019-03-22T19:23:16.578Z,99.90
2019-03-22T19:25:46.305Z,99.90
2019-03-22T19:28:16.050Z,99.90
2019-03-22T19:30:45.877Z,99.90
2019-03-22T19:33:15.721Z,99.90
2019-03-22T19:35:45.512Z,99.90
2019-03-22T19:38:15.357Z,99.90
2019-03-22T19:40:45.499Z,99.90
2019-03-22T19:43:15.510Z,99.90
2019-03-22T19:45:45.331Z,99.90
2019-03-22T19:48:15.261Z,99.90
2019-03-22T19:50:45.058Z,99.90
2019-03-22T19:53:14.774Z,99.90
2019-03-22T19:55:44.482Z,99.90
2019-03-22T19:58:14.169Z,99.90
2019-03-22T20:00:43.850Z,99.90
2019-03-22T20:03:13.556Z,99.90
2019-03-22T20:05:43.248Z,99.90
2019-03-22T20:08:13.859Z,99.90
2019-03-22T20:10:43.746Z,99.90
2019-03-22T20:13:13.814Z,99.90
2019-03-22T20:15:43.665Z,99.90
2019-03-22T20:18:13.521Z,99.90
2019-03-22T20:20:43.274Z,99.90
2019-03-22T20:23:13.087Z,99.90
2019-03-22T20:25:42.866Z,99.90
2019-03-22T20:28:12.724Z,99.90
2019-03-22T20:30:42.512Z,99.90
2019-03-22T20:33:12.206Z,99.90
2019-03-22T20:35:41.965Z,99.90
2019-03-22T20:38:11.699Z,99.90
2019-03-22T20:40:41.486Z,99.90
2019-03-22T20:43:11.730Z,99.90
2019-03-22T20:45:41.473Z,99.90
2019-03-22T20:48:11.158Z,99.90
2019-03-22T20:50:40.906Z,99.90
2019-03-22T20:53:10.598Z,99.90
2019-03-22T20:55:40.366Z,99.90
2019-03-22T20:58:10.690Z,99.90
2019-03-22T21:00:40.499Z,99.90
2019-03-22T21:03:10.209Z,99.90
2019-03-22T21:05:39.913Z,99.90
2019-03-22T21:08:09.609Z,99.90
2019-03-22T21:10:39.473Z,99.90
2019-03-22T21:13:09.325Z,99.90
2019-03-22T21:15:39.158Z,99.90
2019-03-22T21:18:08.858Z,99.90
2019-03-22T21:20:40.566Z,99.90
2019-03-22T21:23:10.261Z,99.90
2019-03-22T21:25:39.973Z,99.90
2019-03-22T21:28:09.660Z,99.90
2019-03-22T21:30:39.348Z,99.90
2019-03-22T21:33:09.058Z,99.90
2019-03-22T21:35:38.733Z,99.90
2019-03-22T21:38:11.076Z,99.90
2019-03-22T21:40:39.876Z,99.90
2019-03-22T21:43:09.841Z,99.90
2019-03-22T21:45:39.588Z,99.90
2019-03-22T21:48:09.294Z,99.90
2019-03-22T21:50:39.067Z,99.90
2019-03-22T21:53:08.770Z,99.90
2019-03-22T21:55:38.466Z,99.90
2019-03-22T21:58:08.155Z,99.90
2019-03-22T22:00:37.931Z,99.90
2019-03-22T22:03:07.649Z,99.90
2019-03-22T22:05:47.217Z,99.90
2019-03-22T22:08:08.917Z,99.90
2019-03-22T22:10:38.789Z,99.90
2019-03-22T22:13:08.612Z,99.90
2019-03-22T22:15:38.338Z,99.90
2019-03-22T22:18:08.170Z,99.90
2019-03-22T22:20:37.854Z,99.90
2019-03-22T22:23:07.561Z,99.90
2019-03-22T22:25:37.407Z,99.90
2019-03-22T22:28:07.401Z,99.90
2019-03-22T22:30:37.165Z,99.90
2019-03-22T22:33:06.974Z,99.90
2019-03-22T22:35:36.900Z,99.90
2019-03-22T22:38:06.677Z,99.90
2019-03-22T22:40:36.357Z,99.90
2019-03-22T22:43:06.057Z,99.90
2019-03-22T22:45:35.791Z,99.90
2019-03-22T22:48:05.602Z,99.90
2019-03-22T22:50:35.363Z,99.90
2019-03-22T22:53:05.049Z,99.90
2019-03-22T22:55:34.764Z,99.90
2019-03-22T22:58:04.477Z,99.90
2019-03-22T23:00:34.459Z,99.90
2019-03-22T23:03:04.253Z,99.90
2019-03-22T23:05:33.940Z,99.90
2019-03-22T23:08:03.902Z,99.90
2019-03-22T23:10:33.709Z,99.90
2019-03-22T23:13:03.559Z,99.90
2019-03-22T23:15:33.223Z,99.90
2019-03-22T23:18:02.942Z,99.90
2019-03-22T23:20:32.661Z,99.90
2019-03-22T23:23:02.353Z,99.90
2019-03-22T23:25:32.154Z,99.90
2019-03-22T23:28:01.845Z,99.90
2019-03-22T23:30:31.607Z,99.90
2019-03-22T23:33:01.328Z,99.90
2019-03-22T23:35:30.989Z,99.90
2019-03-22T23:38:00.730Z,99.90
2019-03-22T23:40:30.407Z,99.90
2019-03-22T23:43:00.173Z,99.90
2019-03-22T23:45:29.902Z,99.90
2019-03-22T23:47:59.606Z,99.90
2019-03-22T23:50:29.281Z,99.90
2019-03-22T23:52:59.050Z,99.90
2019-03-22T23:55:28.729Z,99.90
2019-03-22T23:57:58.409Z,99.90
